Perry, Louisiana
Current Conditions -  °F | °C
As of 5:10 PM on Saturday 25 Oct 2014 (Local Time) from KIYA Reporting Station
Clear Clear  
Wind Chill: 27°   Ceiling: Unl
Heat Index: 27°   Visibility: 10mi
Dew Point:   Wind: 3mph
Humidity: 32%   Direction: 320°NW
Pressure: 30.09"   Gusts: NA
Location:  29.95°N, 92.16°W
Report Text: KIYA 252210Z AUTO 32003KT 10SM CLR 27/09 A3009 RMK AO2 T02680089
Loading
Personal Weather Stations






























Interactive Weather Map
Tropical Storm Tracking
New forecast layout! Learn more

10-Day Weather Forecast

Advertisements
Track Severe Weather on mobile